sensor_id;sensor_type;location;lat;lon;timestamp;P1;durP1;ratioP1;P2;durP2;ratioP2
64061;SDS011;50308;47.438;-1.528;2024-03-17T00:00:20;3.30;;;1.95;;
64061;SDS011;50308;47.438;-1.528;2024-03-17T00:02:46;4.25;;;1.80;;
64061;SDS011;50308;47.438;-1.528;2024-03-17T00:05:12;3.05;;;1.63;;
64061;SDS011;50308;47.438;-1.528;2024-03-17T00:07:38;3.03;;;1.88;;
64061;SDS011;50308;47.438;-1.528;2024-03-17T00:10:04;2.90;;;1.75;;
64061;SDS011;50308;47.438;-1.528;2024-03-17T00:12:32;2.90;;;2.00;;
64061;SDS011;50308;47.438;-1.528;2024-03-17T00:14:58;4.10;;;1.90;;
64061;SDS011;50308;47.438;-1.528;2024-03-17T00:17:24;3.63;;;1.85;;
64061;SDS011;50308;47.438;-1.528;2024-03-17T00:19:49;4.03;;;1.90;;
64061;SDS011;50308;47.438;-1.528;2024-03-17T00:22:15;2.60;;;2.13;;
64061;SDS011;50308;47.438;-1.528;2024-03-17T00:24:42;2.80;;;1.50;;
64061;SDS011;50308;47.438;-1.528;2024-03-17T00:27:09;3.88;;;1.80;;
64061;SDS011;50308;47.438;-1.528;2024-03-17T00:29:36;3.80;;;2.00;;
64061;SDS011;50308;47.438;-1.528;2024-03-17T00:32:05;4.10;;;1.70;;
64061;SDS011;50308;47.438;-1.528;2024-03-17T00:34:31;2.20;;;1.58;;
64061;SDS011;50308;47.438;-1.528;2024-03-17T00:36:57;4.07;;;1.52;;
64061;SDS011;50308;47.438;-1.528;2024-03-17T00:39:24;2.92;;;1.73;;
64061;SDS011;50308;47.438;-1.528;2024-03-17T00:41:50;2.10;;;1.65;;
64061;SDS011;50308;47.438;-1.528;2024-03-17T00:44:16;3.35;;;1.67;;
64061;SDS011;50308;47.438;-1.528;2024-03-17T00:46:41;3.17;;;1.73;;
64061;SDS011;50308;47.438;-1.528;2024-03-17T00:49:08;4.00;;;1.50;;
64061;SDS011;50308;47.438;-1.528;2024-03-17T00:51:35;2.80;;;1.50;;
64061;SDS011;50308;47.438;-1.528;2024-03-17T00:54:01;3.95;;;1.75;;
64061;SDS011;50308;47.438;-1.528;2024-03-17T00:56:27;2.05;;;1.48;;
64061;SDS011;50308;47.438;-1.528;2024-03-17T00:58:53;3.28;;;1.60;;
64061;SDS011;50308;47.438;-1.528;2024-03-17T01:01:18;3.17;;;1.85;;
64061;SDS011;50308;47.438;-1.528;2024-03-17T01:03:47;3.35;;;1.50;;
64061;SDS011;50308;47.438;-1.528;2024-03-17T01:06:13;3.47;;;2.25;;
64061;SDS011;50308;47.438;-1.528;2024-03-17T01:08:39;2.63;;;1.70;;
64061;SDS011;50308;47.438;-1.528;2024-03-17T01:11:04;2.35;;;1.40;;
64061;SDS011;50308;47.438;-1.528;2024-03-17T01:13:33;2.42;;;1.35;;
64061;SDS011;50308;47.438;-1.528;2024-03-17T01:16:00;3.13;;;1.65;;
64061;SDS011;50308;47.438;-1.528;2024-03-17T01:18:26;2.53;;;1.42;;
64061;SDS011;50308;47.438;-1.528;2024-03-17T01:20:51;4.03;;;1.60;;
64061;SDS011;50308;47.438;-1.528;2024-03-17T01:23:17;3.15;;;1.50;;
64061;SDS011;50308;47.438;-1.528;2024-03-17T01:25:43;4.28;;;1.60;;
64061;SDS011;50308;47.438;-1.528;2024-03-17T01:28:09;2.35;;;1.40;;
64061;SDS011;50308;47.438;-1.528;2024-03-17T01:30:35;4.05;;;1.48;;
64061;SDS011;50308;47.438;-1.528;2024-03-17T01:33:00;2.80;;;1.50;;
64061;SDS011;50308;47.438;-1.528;2024-03-17T01:35:26;3.35;;;1.50;;
64061;SDS011;50308;47.438;-1.528;2024-03-17T01:37:52;3.22;;;1.50;;
64061;SDS011;50308;47.438;-1.528;2024-03-17T01:40:18;1.98;;;1.15;;
64061;SDS011;50308;47.438;-1.528;2024-03-17T01:42:44;3.13;;;1.50;;
64061;SDS011;50308;47.438;-1.528;2024-03-17T01:47:55;2.38;;;1.30;;
64061;SDS011;50308;47.438;-1.528;2024-03-17T01:50:25;2.90;;;1.50;;
64061;SDS011;50308;47.438;-1.528;2024-03-17T01:52:55;2.15;;;1.15;;
64061;SDS011;50308;47.438;-1.528;2024-03-17T01:55:24;2.72;;;1.45;;
64061;SDS011;50308;47.438;-1.528;2024-03-17T01:57:52;2.25;;;1.10;;
64061;SDS011;50308;47.438;-1.528;2024-03-17T02:00:18;2.90;;;1.40;;
64061;SDS011;50308;47.438;-1.528;2024-03-17T02:02:44;2.28;;;1.33;;
64061;SDS011;50308;47.438;-1.528;2024-03-17T02:05:09;2.40;;;1.50;;
64061;SDS011;50308;47.438;-1.528;2024-03-17T02:07:35;2.38;;;1.20;;
64061;SDS011;50308;47.438;-1.528;2024-03-17T02:10:01;2.78;;;1.30;;
64061;SDS011;50308;47.438;-1.528;2024-03-17T02:12:31;1.85;;;1.30;;
64061;SDS011;50308;47.438;-1.528;2024-03-17T02:15:00;3.33;;;1.13;;
64061;SDS011;50308;47.438;-1.528;2024-03-17T02:17:26;2.35;;;1.38;;
64061;SDS011;50308;47.438;-1.528;2024-03-17T02:19:53;2.67;;;1.08;;
64061;SDS011;50308;47.438;-1.528;2024-03-17T02:22:19;1.67;;;1.05;;
64061;SDS011;50308;47.438;-1.528;2024-03-17T02:24:45;2.33;;;1.00;;
64061;SDS011;50308;47.438;-1.528;2024-03-17T02:27:11;1.58;;;1.33;;
64061;SDS011;50308;47.438;-1.528;2024-03-17T02:29:37;1.52;;;1.02;;
64061;SDS011;50308;47.438;-1.528;2024-03-17T02:32:04;1.67;;;1.17;;
64061;SDS011;50308;47.438;-1.528;2024-03-17T02:34:36;2.20;;;1.35;;
64061;SDS011;50308;47.438;-1.528;2024-03-17T02:37:03;2.97;;;1.60;;
64061;SDS011;50308;47.438;-1.528;2024-03-17T02:39:31;2.50;;;1.05;;
64061;SDS011;50308;47.438;-1.528;2024-03-17T02:42:04;1.30;;;0.83;;
64061;SDS011;50308;47.438;-1.528;2024-03-17T02:44:32;2.33;;;1.10;;
64061;SDS011;50308;47.438;-1.528;2024-03-17T02:46:59;2.67;;;1.30;;
64061;SDS011;50308;47.438;-1.528;2024-03-17T02:49:25;2.10;;;1.17;;
64061;SDS011;50308;47.438;-1.528;2024-03-17T02:52:05;2.35;;;1.10;;
64061;SDS011;50308;47.438;-1.528;2024-03-17T02:54:34;2.17;;;1.00;;
64061;SDS011;50308;47.438;-1.528;2024-03-17T02:57:01;1.23;;;1.00;;
64061;SDS011;50308;47.438;-1.528;2024-03-17T02:59:29;1.75;;;1.00;;
64061;SDS011;50308;47.438;-1.528;2024-03-17T03:01:56;3.47;;;1.00;;
64061;SDS011;50308;47.438;-1.528;2024-03-17T03:04:22;1.65;;;1.10;;
64061;SDS011;50308;47.438;-1.528;2024-03-17T03:06:47;2.35;;;1.02;;
64061;SDS011;50308;47.438;-1.528;2024-03-17T03:09:13;3.15;;;1.08;;
64061;SDS011;50308;47.438;-1.528;2024-03-17T03:11:45;2.35;;;1.00;;
64061;SDS011;50308;47.438;-1.528;2024-03-17T03:14:11;4.45;;;1.10;;
64061;SDS011;50308;47.438;-1.528;2024-03-17T03:16:37;2.03;;;1.10;;
64061;SDS011;50308;47.438;-1.528;2024-03-17T03:19:03;2.28;;;1.20;;
64061;SDS011;50308;47.438;-1.528;2024-03-17T03:21:30;3.10;;;1.27;;
64061;SDS011;50308;47.438;-1.528;2024-03-17T03:23:56;2.88;;;1.08;;
64061;SDS011;50308;47.438;-1.528;2024-03-17T03:26:22;1.95;;;0.90;;
64061;SDS011;50308;47.438;-1.528;2024-03-17T03:28:48;2.47;;;0.98;;
64061;SDS011;50308;47.438;-1.528;2024-03-17T03:31:15;3.58;;;1.20;;
64061;SDS011;50308;47.438;-1.528;2024-03-17T03:33:41;2.72;;;1.00;;
64061;SDS011;50308;47.438;-1.528;2024-03-17T03:36:07;3.40;;;1.33;;
64061;SDS011;50308;47.438;-1.528;2024-03-17T03:38:34;1.15;;;0.85;;
64061;SDS011;50308;47.438;-1.528;2024-03-17T03:41:05;3.13;;;1.02;;
64061;SDS011;50308;47.438;-1.528;2024-03-17T03:43:32;1.38;;;0.90;;
64061;SDS011;50308;47.438;-1.528;2024-03-17T03:45:58;2.05;;;0.98;;
64061;SDS011;50308;47.438;-1.528;2024-03-17T03:48:25;1.55;;;0.90;;
64061;SDS011;50308;47.438;-1.528;2024-03-17T03:50:50;4.30;;;1.40;;
64061;SDS011;50308;47.438;-1.528;2024-03-17T03:53:16;2.72;;;1.00;;
64061;SDS011;50308;47.438;-1.528;2024-03-17T03:55:42;2.67;;;1.15;;
64061;SDS011;50308;47.438;-1.528;2024-03-17T03:58:07;2.78;;;1.10;;
64061;SDS011;50308;47.438;-1.528;2024-03-17T04:00:33;2.10;;;0.98;;
64061;SDS011;50308;47.438;-1.528;2024-03-17T04:02:59;3.05;;;1.33;;
64061;SDS011;50308;47.438;-1.528;2024-03-17T04:05:27;2.42;;;1.00;;
64061;SDS011;50308;47.438;-1.528;2024-03-17T04:07:53;2.60;;;1.10;;
64061;SDS011;50308;47.438;-1.528;2024-03-17T04:10:18;2.50;;;1.00;;
64061;SDS011;50308;47.438;-1.528;2024-03-17T04:12:45;2.00;;;1.00;;
64061;SDS011;50308;47.438;-1.528;2024-03-17T04:15:11;2.53;;;1.05;;
64061;SDS011;50308;47.438;-1.528;2024-03-17T04:17:37;2.15;;;0.90;;
64061;SDS011;50308;47.438;-1.528;2024-03-17T04:20:03;2.03;;;1.10;;
64061;SDS011;50308;47.438;-1.528;2024-03-17T04:22:33;2.17;;;0.98;;
64061;SDS011;50308;47.438;-1.528;2024-03-17T04:24:59;2.28;;;1.35;;
64061;SDS011;50308;47.438;-1.528;2024-03-17T04:27:25;1.90;;;0.95;;
64061;SDS011;50308;47.438;-1.528;2024-03-17T04:29:54;2.97;;;1.17;;
64061;SDS011;50308;47.438;-1.528;2024-03-17T04:32:21;2.27;;;1.27;;
64061;SDS011;50308;47.438;-1.528;2024-03-17T04:34:47;2.75;;;1.08;;
64061;SDS011;50308;47.438;-1.528;2024-03-17T04:37:13;1.90;;;1.05;;
64061;SDS011;50308;47.438;-1.528;2024-03-17T04:39:39;2.92;;;1.15;;
64061;SDS011;50308;47.438;-1.528;2024-03-17T04:42:07;1.08;;;0.90;;
64061;SDS011;50308;47.438;-1.528;2024-03-17T04:44:41;2.45;;;1.10;;
64061;SDS011;50308;47.438;-1.528;2024-03-17T04:47:07;2.63;;;0.90;;
64061;SDS011;50308;47.438;-1.528;2024-03-17T04:49:38;4.78;;;1.20;;
64061;SDS011;50308;47.438;-1.528;2024-03-17T04:52:12;2.05;;;0.93;;
64061;SDS011;50308;47.438;-1.528;2024-03-17T04:54:38;2.17;;;1.20;;
64061;SDS011;50308;47.438;-1.528;2024-03-17T04:57:06;2.22;;;1.40;;
64061;SDS011;50308;47.438;-1.528;2024-03-17T04:59:33;2.80;;;0.98;;
64061;SDS011;50308;47.438;-1.528;2024-03-17T05:02:00;2.60;;;1.20;;
64061;SDS011;50308;47.438;-1.528;2024-03-17T05:04:25;3.00;;;1.20;;
64061;SDS011;50308;47.438;-1.528;2024-03-17T05:06:51;2.78;;;1.10;;
64061;SDS011;50308;47.438;-1.528;2024-03-17T05:09:17;3.22;;;1.30;;
64061;SDS011;50308;47.438;-1.528;2024-03-17T05:11:43;3.00;;;1.10;;
64061;SDS011;50308;47.438;-1.528;2024-03-17T05:14:09;2.80;;;1.20;;
64061;SDS011;50308;47.438;-1.528;2024-03-17T05:16:36;2.35;;;1.20;;
64061;SDS011;50308;47.438;-1.528;2024-03-17T05:19:02;2.65;;;1.40;;
64061;SDS011;50308;47.438;-1.528;2024-03-17T05:21:28;2.45;;;1.20;;
64061;SDS011;50308;47.438;-1.528;2024-03-17T05:23:55;3.22;;;1.15;;
64061;SDS011;50308;47.438;-1.528;2024-03-17T05:26:26;2.05;;;1.20;;
64061;SDS011;50308;47.438;-1.528;2024-03-17T05:28:52;2.25;;;0.85;;
64061;SDS011;50308;47.438;-1.528;2024-03-17T05:31:18;1.27;;;0.88;;
64061;SDS011;50308;47.438;-1.528;2024-03-17T05:33:46;2.28;;;1.20;;
64061;SDS011;50308;47.438;-1.528;2024-03-17T05:36:12;1.90;;;0.95;;
64061;SDS011;50308;47.438;-1.528;2024-03-17T05:38:38;2.28;;;1.20;;
64061;SDS011;50308;47.438;-1.528;2024-03-17T05:41:04;3.38;;;1.23;;
64061;SDS011;50308;47.438;-1.528;2024-03-17T05:43:32;2.13;;;1.05;;
64061;SDS011;50308;47.438;-1.528;2024-03-17T05:46:01;1.85;;;1.05;;
64061;SDS011;50308;47.438;-1.528;2024-03-17T05:48:28;2.08;;;1.20;;
64061;SDS011;50308;47.438;-1.528;2024-03-17T05:50:54;2.25;;;0.90;;
64061;SDS011;50308;47.438;-1.528;2024-03-17T05:53:20;1.58;;;0.90;;
64061;SDS011;50308;47.438;-1.528;2024-03-17T05:55:49;1.30;;;1.00;;
64061;SDS011;50308;47.438;-1.528;2024-03-17T05:58:15;1.98;;;1.20;;
64061;SDS011;50308;47.438;-1.528;2024-03-17T06:00:40;2.30;;;1.20;;
64061;SDS011;50308;47.438;-1.528;2024-03-17T06:03:06;2.30;;;1.05;;
64061;SDS011;50308;47.438;-1.528;2024-03-17T06:05:33;3.67;;;1.17;;
64061;SDS011;50308;47.438;-1.528;2024-03-17T06:08:00;1.95;;;1.00;;
64061;SDS011;50308;47.438;-1.528;2024-03-17T06:10:28;3.15;;;1.10;;
64061;SDS011;50308;47.438;-1.528;2024-03-17T06:12:54;2.05;;;1.20;;
64061;SDS011;50308;47.438;-1.528;2024-03-17T06:15:21;2.58;;;1.20;;
64061;SDS011;50308;47.438;-1.528;2024-03-17T06:17:48;2.72;;;1.25;;
64061;SDS011;50308;47.438;-1.528;2024-03-17T06:20:14;3.45;;;1.20;;
64061;SDS011;50308;47.438;-1.528;2024-03-17T06:22:41;2.88;;;1.35;;
64061;SDS011;50308;47.438;-1.528;2024-03-17T06:25:06;2.53;;;1.13;;
64061;SDS011;50308;47.438;-1.528;2024-03-17T06:27:32;1.40;;;1.10;;
64061;SDS011;50308;47.438;-1.528;2024-03-17T06:30:01;1.98;;;1.13;;
64061;SDS011;50308;47.438;-1.528;2024-03-17T06:32:29;1.90;;;1.42;;
64061;SDS011;50308;47.438;-1.528;2024-03-17T06:34:56;3.38;;;1.30;;
64061;SDS011;50308;47.438;-1.528;2024-03-17T06:37:23;1.50;;;1.05;;
64061;SDS011;50308;47.438;-1.528;2024-03-17T06:39:49;3.15;;;1.13;;
64061;SDS011;50308;47.438;-1.528;2024-03-17T06:42:15;2.33;;;1.10;;
64061;SDS011;50308;47.438;-1.528;2024-03-17T06:44:40;2.72;;;1.33;;
64061;SDS011;50308;47.438;-1.528;2024-03-17T06:47:06;2.17;;;1.30;;
64061;SDS011;50308;47.438;-1.528;2024-03-17T06:49:32;2.08;;;1.00;;
64061;SDS011;50308;47.438;-1.528;2024-03-17T06:51:57;2.60;;;1.30;;
64061;SDS011;50308;47.438;-1.528;2024-03-17T06:54:23;1.40;;;1.10;;
64061;SDS011;50308;47.438;-1.528;2024-03-17T06:56:49;2.63;;;1.48;;
64061;SDS011;50308;47.438;-1.528;2024-03-17T06:59:16;3.40;;;1.58;;
64061;SDS011;50308;47.438;-1.528;2024-03-17T07:01:42;2.85;;;1.50;;
64061;SDS011;50308;47.438;-1.528;2024-03-17T07:04:09;2.40;;;1.17;;
64061;SDS011;50308;47.438;-1.528;2024-03-17T07:06:36;2.67;;;1.20;;
64061;SDS011;50308;47.438;-1.528;2024-03-17T07:09:02;1.92;;;1.30;;
64061;SDS011;50308;47.438;-1.528;2024-03-17T07:11:28;3.00;;;1.73;;
64061;SDS011;50308;47.438;-1.528;2024-03-17T07:13:53;2.20;;;1.40;;
64061;SDS011;50308;47.438;-1.528;2024-03-17T07:16:19;2.28;;;1.30;;
64061;SDS011;50308;47.438;-1.528;2024-03-17T07:18:47;2.65;;;1.30;;
64061;SDS011;50308;47.438;-1.528;2024-03-17T07:21:14;2.15;;;1.30;;
64061;SDS011;50308;47.438;-1.528;2024-03-17T07:23:40;2.53;;;1.50;;
64061;SDS011;50308;47.438;-1.528;2024-03-17T07:26:06;2.35;;;1.27;;
64061;SDS011;50308;47.438;-1.528;2024-03-17T07:28:32;2.10;;;1.50;;
64061;SDS011;50308;47.438;-1.528;2024-03-17T07:30:58;2.67;;;1.50;;
64061;SDS011;50308;47.438;-1.528;2024-03-17T07:33:27;1.90;;;1.55;;
64061;SDS011;50308;47.438;-1.528;2024-03-17T07:35:54;1.95;;;1.25;;
64061;SDS011;50308;47.438;-1.528;2024-03-17T07:38:23;2.17;;;1.48;;
64061;SDS011;50308;47.438;-1.528;2024-03-17T07:40:58;2.10;;;1.27;;
64061;SDS011;50308;47.438;-1.528;2024-03-17T07:43:26;2.88;;;1.50;;
64061;SDS011;50308;47.438;-1.528;2024-03-17T07:48:28;3.78;;;2.22;;
64061;SDS011;50308;47.438;-1.528;2024-03-17T07:53:22;2.92;;;1.35;;
64061;SDS011;50308;47.438;-1.528;2024-03-17T07:55:56;3.13;;;1.60;;
64061;SDS011;50308;47.438;-1.528;2024-03-17T07:58:26;2.30;;;1.40;;
64061;SDS011;50308;47.438;-1.528;2024-03-17T08:00:52;3.83;;;1.80;;
64061;SDS011;50308;47.438;-1.528;2024-03-17T08:03:21;2.67;;;1.63;;
64061;SDS011;50308;47.438;-1.528;2024-03-17T08:05:48;1.95;;;1.52;;
64061;SDS011;50308;47.438;-1.528;2024-03-17T08:08:14;1.48;;;1.20;;
64061;SDS011;50308;47.438;-1.528;2024-03-17T08:10:40;2.13;;;1.40;;
64061;SDS011;50308;47.438;-1.528;2024-03-17T08:13:06;3.55;;;1.70;;
64061;SDS011;50308;47.438;-1.528;2024-03-17T08:15:34;4.90;;;2.78;;
64061;SDS011;50308;47.438;-1.528;2024-03-17T08:18:00;3.67;;;2.90;;
64061;SDS011;50308;47.438;-1.528;2024-03-17T08:20:25;3.88;;;1.70;;
64061;SDS011;50308;47.438;-1.528;2024-03-17T08:22:51;4.22;;;1.90;;
64061;SDS011;50308;47.438;-1.528;2024-03-17T08:25:17;3.63;;;2.28;;
64061;SDS011;50308;47.438;-1.528;2024-03-17T08:27:42;9.13;;;8.10;;
64061;SDS011;50308;47.438;-1.528;2024-03-17T08:30:09;7.47;;;5.22;;
64061;SDS011;50308;47.438;-1.528;2024-03-17T08:32:35;6.35;;;3.85;;
64061;SDS011;50308;47.438;-1.528;2024-03-17T08:35:01;5.13;;;3.03;;
64061;SDS011;50308;47.438;-1.528;2024-03-17T08:37:26;6.45;;;5.60;;
64061;SDS011;50308;47.438;-1.528;2024-03-17T08:39:52;12.38;;;9.98;;
64061;SDS011;50308;47.438;-1.528;2024-03-17T08:42:18;30.67;;;19.67;;
64061;SDS011;50308;47.438;-1.528;2024-03-17T08:44:46;24.42;;;15.20;;
64061;SDS011;50308;47.438;-1.528;2024-03-17T08:47:12;16.75;;;10.75;;
64061;SDS011;50308;47.438;-1.528;2024-03-17T08:49:38;22.10;;;14.27;;
64061;SDS011;50308;47.438;-1.528;2024-03-17T08:52:03;17.52;;;11.30;;
64061;SDS011;50308;47.438;-1.528;2024-03-17T08:54:29;11.57;;;8.20;;
64061;SDS011;50308;47.438;-1.528;2024-03-17T08:56:55;10.27;;;6.90;;
64061;SDS011;50308;47.438;-1.528;2024-03-17T08:59:20;9.80;;;6.78;;
64061;SDS011;50308;47.438;-1.528;2024-03-17T09:01:46;11.57;;;6.65;;
64061;SDS011;50308;47.438;-1.528;2024-03-17T09:04:11;11.27;;;7.95;;
64061;SDS011;50308;47.438;-1.528;2024-03-17T09:06:37;9.40;;;6.95;;
64061;SDS011;50308;47.438;-1.528;2024-03-17T09:09:03;12.68;;;7.15;;
64061;SDS011;50308;47.438;-1.528;2024-03-17T09:11:29;12.00;;;8.02;;
64061;SDS011;50308;47.438;-1.528;2024-03-17T09:13:54;11.32;;;5.85;;
64061;SDS011;50308;47.438;-1.528;2024-03-17T09:16:20;8.98;;;5.13;;
64061;SDS011;50308;47.438;-1.528;2024-03-17T09:18:48;6.38;;;4.20;;
64061;SDS011;50308;47.438;-1.528;2024-03-17T09:21:16;6.75;;;3.67;;
64061;SDS011;50308;47.438;-1.528;2024-03-17T09:23:42;6.82;;;4.63;;
64061;SDS011;50308;47.438;-1.528;2024-03-17T09:26:09;6.13;;;3.88;;
64061;SDS011;50308;47.438;-1.528;2024-03-17T09:28:38;6.25;;;4.30;;
64061;SDS011;50308;47.438;-1.528;2024-03-17T09:31:03;5.85;;;4.00;;
64061;SDS011;50308;47.438;-1.528;2024-03-17T09:33:32;6.65;;;4.25;;
64061;SDS011;50308;47.438;-1.528;2024-03-17T09:35:59;5.68;;;3.17;;
64061;SDS011;50308;47.438;-1.528;2024-03-17T09:38:26;5.10;;;3.70;;
64061;SDS011;50308;47.438;-1.528;2024-03-17T09:40:53;4.45;;;3.20;;
64061;SDS011;50308;47.438;-1.528;2024-03-17T09:43:20;5.13;;;3.00;;
64061;SDS011;50308;47.438;-1.528;2024-03-17T09:45:46;4.05;;;2.72;;
64061;SDS011;50308;47.438;-1.528;2024-03-17T09:48:16;5.30;;;3.15;;
64061;SDS011;50308;47.438;-1.528;2024-03-17T09:50:44;7.38;;;3.67;;
64061;SDS011;50308;47.438;-1.528;2024-03-17T09:53:17;4.68;;;2.67;;
64061;SDS011;50308;47.438;-1.528;2024-03-17T09:58:16;3.78;;;2.38;;
64061;SDS011;50308;47.438;-1.528;2024-03-17T10:00:43;3.47;;;2.10;;
64061;SDS011;50308;47.438;-1.528;2024-03-17T10:03:09;3.47;;;1.80;;
64061;SDS011;50308;47.438;-1.528;2024-03-17T10:05:35;5.55;;;2.50;;
64061;SDS011;50308;47.438;-1.528;2024-03-17T10:08:00;3.80;;;2.40;;
64061;SDS011;50308;47.438;-1.528;2024-03-17T10:10:27;3.97;;;2.38;;
64061;SDS011;50308;47.438;-1.528;2024-03-17T10:12:53;3.28;;;1.90;;
64061;SDS011;50308;47.438;-1.528;2024-03-17T10:15:19;5.05;;;2.20;;
64061;SDS011;50308;47.438;-1.528;2024-03-17T10:17:45;3.33;;;1.90;;
64061;SDS011;50308;47.438;-1.528;2024-03-17T10:20:11;2.92;;;1.83;;
64061;SDS011;50308;47.438;-1.528;2024-03-17T10:22:41;3.60;;;1.67;;
64061;SDS011;50308;47.438;-1.528;2024-03-17T10:25:22;3.38;;;1.98;;
64061;SDS011;50308;47.438;-1.528;2024-03-17T10:27:48;2.95;;;2.10;;
64061;SDS011;50308;47.438;-1.528;2024-03-17T10:30:18;4.22;;;2.08;;
64061;SDS011;50308;47.438;-1.528;2024-03-17T10:32:53;2.78;;;2.17;;
64061;SDS011;50308;47.438;-1.528;2024-03-17T10:37:56;2.70;;;2.13;;
64061;SDS011;50308;47.438;-1.528;2024-03-17T10:40:24;3.40;;;1.85;;
64061;SDS011;50308;47.438;-1.528;2024-03-17T10:42:50;2.70;;;1.88;;
64061;SDS011;50308;47.438;-1.528;2024-03-17T10:45:16;5.18;;;2.33;;
64061;SDS011;50308;47.438;-1.528;2024-03-17T10:47:47;3.90;;;1.85;;
64061;SDS011;50308;47.438;-1.528;2024-03-17T10:50:21;3.83;;;2.55;;
64061;SDS011;50308;47.438;-1.528;2024-03-17T10:52:49;4.03;;;2.05;;
64061;SDS011;50308;47.438;-1.528;2024-03-17T10:55:25;3.33;;;2.00;;
64061;SDS011;50308;47.438;-1.528;2024-03-17T10:57:52;3.17;;;2.10;;
64061;SDS011;50308;47.438;-1.528;2024-03-17T11:00:20;4.20;;;1.88;;
64061;SDS011;50308;47.438;-1.528;2024-03-17T11:02:48;2.13;;;1.70;;
64061;SDS011;50308;47.438;-1.528;2024-03-17T11:05:50;2.95;;;1.50;;
64061;SDS011;50308;47.438;-1.528;2024-03-17T11:08:07;3.80;;;1.70;;
64061;SDS011;50308;47.438;-1.528;2024-03-17T11:10:41;5.05;;;2.55;;
64061;SDS011;50308;47.438;-1.528;2024-03-17T11:13:25;3.90;;;2.67;;
64061;SDS011;50308;47.438;-1.528;2024-03-17T11:15:52;3.80;;;2.13;;
64061;SDS011;50308;47.438;-1.528;2024-03-17T11:21:20;4.15;;;1.80;;
64061;SDS011;50308;47.438;-1.528;2024-03-17T11:23:57;4.38;;;1.95;;
64061;SDS011;50308;47.438;-1.528;2024-03-17T11:26:29;4.20;;;2.00;;
64061;SDS011;50308;47.438;-1.528;2024-03-17T11:28:59;2.47;;;2.13;;
64061;SDS011;50308;47.438;-1.528;2024-03-17T11:31:37;4.15;;;1.98;;
64061;SDS011;50308;47.438;-1.528;2024-03-17T11:34:26;2.58;;;1.60;;
64061;SDS011;50308;47.438;-1.528;2024-03-17T11:36:58;2.88;;;1.70;;
64061;SDS011;50308;47.438;-1.528;2024-03-17T11:42:20;2.67;;;1.60;;
64061;SDS011;50308;47.438;-1.528;2024-03-17T11:47:34;2.50;;;1.42;;
64061;SDS011;50308;47.438;-1.528;2024-03-17T11:50:08;2.50;;;1.48;;
64061;SDS011;50308;47.438;-1.528;2024-03-17T11:52:36;3.45;;;1.25;;
64061;SDS011;50308;47.438;-1.528;2024-03-17T11:55:02;3.83;;;2.05;;
64061;SDS011;50308;47.438;-1.528;2024-03-17T11:57:29;3.75;;;1.52;;
64061;SDS011;50308;47.438;-1.528;2024-03-17T11:59:55;2.75;;;1.30;;
64061;SDS011;50308;47.438;-1.528;2024-03-17T12:02:22;3.08;;;1.30;;
64061;SDS011;50308;47.438;-1.528;2024-03-17T12:04:51;2.30;;;1.70;;
64061;SDS011;50308;47.438;-1.528;2024-03-17T12:07:18;2.90;;;1.58;;
64061;SDS011;50308;47.438;-1.528;2024-03-17T12:09:48;2.65;;;2.25;;
64061;SDS011;50308;47.438;-1.528;2024-03-17T12:12:16;3.60;;;2.00;;
64061;SDS011;50308;47.438;-1.528;2024-03-17T12:14:47;2.95;;;2.00;;
64061;SDS011;50308;47.438;-1.528;2024-03-17T12:17:21;3.13;;;2.15;;
64061;SDS011;50308;47.438;-1.528;2024-03-17T12:19:47;3.20;;;2.10;;
64061;SDS011;50308;47.438;-1.528;2024-03-17T12:22:15;3.15;;;1.45;;
64061;SDS011;50308;47.438;-1.528;2024-03-17T12:24:49;2.55;;;1.52;;
64061;SDS011;50308;47.438;-1.528;2024-03-17T12:27:17;2.80;;;1.50;;
64061;SDS011;50308;47.438;-1.528;2024-03-17T12:29:44;4.05;;;1.30;;
64061;SDS011;50308;47.438;-1.528;2024-03-17T12:34:42;1.98;;;1.30;;
64061;SDS011;50308;47.438;-1.528;2024-03-17T12:37:13;2.85;;;1.55;;
64061;SDS011;50308;47.438;-1.528;2024-03-17T12:39:43;2.42;;;1.55;;
64061;SDS011;50308;47.438;-1.528;2024-03-17T12:42:10;3.13;;;1.50;;
64061;SDS011;50308;47.438;-1.528;2024-03-17T12:44:39;3.67;;;1.58;;
64061;SDS011;50308;47.438;-1.528;2024-03-17T12:47:14;4.95;;;1.75;;
64061;SDS011;50308;47.438;-1.528;2024-03-17T12:49:51;2.47;;;1.40;;
64061;SDS011;50308;47.438;-1.528;2024-03-17T12:52:18;3.63;;;1.73;;
64061;SDS011;50308;47.438;-1.528;2024-03-17T12:54:44;2.13;;;1.40;;
64061;SDS011;50308;47.438;-1.528;2024-03-17T12:57:19;3.03;;;1.63;;
64061;SDS011;50308;47.438;-1.528;2024-03-17T13:00:16;2.72;;;1.67;;
64061;SDS011;50308;47.438;-1.528;2024-03-17T13:02:58;4.57;;;1.73;;
64061;SDS011;50308;47.438;-1.528;2024-03-17T13:05:25;3.40;;;1.60;;
64061;SDS011;50308;47.438;-1.528;2024-03-17T13:07:51;2.30;;;1.60;;
64061;SDS011;50308;47.438;-1.528;2024-03-17T13:10:19;3.10;;;1.50;;
64061;SDS011;50308;47.438;-1.528;2024-03-17T13:12:45;4.18;;;1.88;;
64061;SDS011;50308;47.438;-1.528;2024-03-17T13:15:14;4.45;;;1.90;;
64061;SDS011;50308;47.438;-1.528;2024-03-17T13:17:42;5.63;;;2.13;;
64061;SDS011;50308;47.438;-1.528;2024-03-17T13:20:12;2.97;;;1.67;;
64061;SDS011;50308;47.438;-1.528;2024-03-17T13:22:45;3.97;;;1.80;;
64061;SDS011;50308;47.438;-1.528;2024-03-17T13:25:17;3.72;;;1.67;;
64061;SDS011;50308;47.438;-1.528;2024-03-17T13:27:46;6.85;;;1.95;;
64061;SDS011;50308;47.438;-1.528;2024-03-17T13:30:14;3.03;;;1.60;;
64061;SDS011;50308;47.438;-1.528;2024-03-17T13:32:41;2.83;;;1.92;;
64061;SDS011;50308;47.438;-1.528;2024-03-17T13:35:20;2.92;;;1.75;;
64061;SDS011;50308;47.438;-1.528;2024-03-17T13:37:47;3.25;;;1.70;;
64061;SDS011;50308;47.438;-1.528;2024-03-17T13:40:15;3.22;;;1.80;;
64061;SDS011;50308;47.438;-1.528;2024-03-17T13:42:47;2.88;;;1.95;;
64061;SDS011;50308;47.438;-1.528;2024-03-17T13:45:14;5.55;;;2.60;;
64061;SDS011;50308;47.438;-1.528;2024-03-17T13:47:41;4.10;;;2.33;;
64061;SDS011;50308;47.438;-1.528;2024-03-17T13:50:10;4.13;;;2.27;;
64061;SDS011;50308;47.438;-1.528;2024-03-17T13:52:37;4.82;;;2.80;;
64061;SDS011;50308;47.438;-1.528;2024-03-17T13:55:11;5.13;;;2.88;;
64061;SDS011;50308;47.438;-1.528;2024-03-17T13:57:39;6.65;;;3.22;;
64061;SDS011;50308;47.438;-1.528;2024-03-17T14:00:05;3.63;;;2.72;;
64061;SDS011;50308;47.438;-1.528;2024-03-17T14:02:32;5.25;;;2.40;;
64061;SDS011;50308;47.438;-1.528;2024-03-17T14:04:58;3.17;;;2.00;;
64061;SDS011;50308;47.438;-1.528;2024-03-17T14:07:24;5.25;;;2.33;;
64061;SDS011;50308;47.438;-1.528;2024-03-17T14:09:51;2.80;;;1.85;;
64061;SDS011;50308;47.438;-1.528;2024-03-17T14:12:16;4.85;;;2.60;;
64061;SDS011;50308;47.438;-1.528;2024-03-17T14:14:42;3.95;;;2.03;;
64061;SDS011;50308;47.438;-1.528;2024-03-17T14:17:09;2.97;;;1.77;;
64061;SDS011;50308;47.438;-1.528;2024-03-17T14:19:34;8.20;;;4.15;;
64061;SDS011;50308;47.438;-1.528;2024-03-17T14:22:00;3.08;;;1.80;;
64061;SDS011;50308;47.438;-1.528;2024-03-17T14:24:26;4.30;;;1.80;;
64061;SDS011;50308;47.438;-1.528;2024-03-17T14:26:52;3.88;;;2.20;;
64061;SDS011;50308;47.438;-1.528;2024-03-17T14:29:17;4.18;;;2.17;;
64061;SDS011;50308;47.438;-1.528;2024-03-17T14:31:43;4.20;;;1.88;;
64061;SDS011;50308;47.438;-1.528;2024-03-17T14:34:10;3.50;;;1.55;;
64061;SDS011;50308;47.438;-1.528;2024-03-17T14:36:36;4.15;;;2.22;;
64061;SDS011;50308;47.438;-1.528;2024-03-17T14:39:02;3.30;;;2.30;;
64061;SDS011;50308;47.438;-1.528;2024-03-17T14:41:31;3.90;;;2.10;;
64061;SDS011;50308;47.438;-1.528;2024-03-17T14:43:57;3.33;;;2.55;;
64061;SDS011;50308;47.438;-1.528;2024-03-17T14:46:23;3.17;;;2.85;;
64061;SDS011;50308;47.438;-1.528;2024-03-17T14:48:49;2.95;;;2.65;;
64061;SDS011;50308;47.438;-1.528;2024-03-17T14:51:16;3.53;;;2.80;;
64061;SDS011;50308;47.438;-1.528;2024-03-17T14:53:48;2.80;;;2.47;;
64061;SDS011;50308;47.438;-1.528;2024-03-17T14:56:16;4.97;;;2.92;;
64061;SDS011;50308;47.438;-1.528;2024-03-17T14:58:43;5.10;;;3.00;;